sensor_id;sensor_type;location;lat;lon;timestamp;P1;durP1;ratioP1;P2;durP2;ratioP2
71435;SDS011;59251;51.326;12.370;2022-10-16T00:01:54;4.50;;;0.70;;
71435;SDS011;59251;51.326;12.370;2022-10-16T00:04:19;6.17;;;0.70;;
71435;SDS011;59251;51.326;12.370;2022-10-16T00:06:44;4.77;;;0.63;;
71435;SDS011;59251;51.326;12.370;2022-10-16T00:09:10;6.13;;;0.90;;
71435;SDS011;59251;51.326;12.370;2022-10-16T00:11:36;4.10;;;0.60;;
71435;SDS011;59251;51.326;12.370;2022-10-16T00:14:06;5.47;;;0.70;;
71435;SDS011;59251;51.326;12.370;2022-10-16T00:16:34;6.07;;;0.90;;
71435;SDS011;59251;51.326;12.370;2022-10-16T00:18:59;4.63;;;0.80;;
71435;SDS011;59251;51.326;12.370;2022-10-16T00:21:26;4.30;;;0.70;;
71435;SDS011;59251;51.326;12.370;2022-10-16T00:23:53;5.15;;;0.70;;
71435;SDS011;59251;51.326;12.370;2022-10-16T00:26:20;5.32;;;0.85;;
71435;SDS011;59251;51.326;12.370;2022-10-16T00:28:47;5.07;;;0.90;;
71435;SDS011;59251;51.326;12.370;2022-10-16T00:31:13;8.15;;;2.33;;
71435;SDS011;59251;51.326;12.370;2022-10-16T00:33:39;4.72;;;0.80;;
71435;SDS011;59251;51.326;12.370;2022-10-16T00:36:06;4.60;;;0.82;;
71435;SDS011;59251;51.326;12.370;2022-10-16T00:38:33;4.37;;;0.90;;
71435;SDS011;59251;51.326;12.370;2022-10-16T00:40:59;4.40;;;0.73;;
71435;SDS011;59251;51.326;12.370;2022-10-16T00:46:25;7.93;;;0.73;;
71435;SDS011;59251;51.326;12.370;2022-10-16T00:51:28;6.20;;;0.70;;
71435;SDS011;59251;51.326;12.370;2022-10-16T00:53:58;3.90;;;0.63;;
71435;SDS011;59251;51.326;12.370;2022-10-16T00:56:25;5.25;;;0.57;;
71435;SDS011;59251;51.326;12.370;2022-10-16T00:58:50;3.60;;;0.50;;
71435;SDS011;59251;51.326;12.370;2022-10-16T01:01:15;4.53;;;0.60;;
71435;SDS011;59251;51.326;12.370;2022-10-16T01:03:41;6.68;;;0.90;;
71435;SDS011;59251;51.326;12.370;2022-10-16T01:06:09;5.50;;;0.60;;
71435;SDS011;59251;51.326;12.370;2022-10-16T01:09:06;3.55;;;0.63;;
71435;SDS011;59251;51.326;12.370;2022-10-16T01:14:15;3.80;;;0.70;;
71435;SDS011;59251;51.326;12.370;2022-10-16T01:19:37;4.28;;;0.75;;
71435;SDS011;59251;51.326;12.370;2022-10-16T01:22:13;4.00;;;0.75;;
71435;SDS011;59251;51.326;12.370;2022-10-16T01:24:40;4.80;;;0.70;;
71435;SDS011;59251;51.326;12.370;2022-10-16T01:32:14;4.00;;;0.80;;
71435;SDS011;59251;51.326;12.370;2022-10-16T01:34:48;3.78;;;0.63;;
71435;SDS011;59251;51.326;12.370;2022-10-16T01:37:23;5.23;;;0.70;;
71435;SDS011;59251;51.326;12.370;2022-10-16T01:39:55;4.25;;;0.90;;
71435;SDS011;59251;51.326;12.370;2022-10-16T01:42:27;4.18;;;0.85;;
71435;SDS011;59251;51.326;12.370;2022-10-16T01:44:57;5.60;;;0.80;;
71435;SDS011;59251;51.326;12.370;2022-10-16T01:47:25;4.45;;;0.80;;
71435;SDS011;59251;51.326;12.370;2022-10-16T01:49:52;4.40;;;0.97;;
71435;SDS011;59251;51.326;12.370;2022-10-16T01:52:21;5.10;;;0.90;;
71435;SDS011;59251;51.326;12.370;2022-10-16T01:54:50;4.50;;;0.85;;
71435;SDS011;59251;51.326;12.370;2022-10-16T01:57:18;4.22;;;0.90;;
71435;SDS011;59251;51.326;12.370;2022-10-16T01:59:47;5.72;;;1.02;;
71435;SDS011;59251;51.326;12.370;2022-10-16T02:02:16;5.10;;;1.20;;
71435;SDS011;59251;51.326;12.370;2022-10-16T02:04:51;4.35;;;0.95;;
71435;SDS011;59251;51.326;12.370;2022-10-16T02:07:20;6.22;;;1.00;;
71435;SDS011;59251;51.326;12.370;2022-10-16T02:09:45;4.57;;;0.90;;
71435;SDS011;59251;51.326;12.370;2022-10-16T02:12:25;4.85;;;0.80;;
71435;SDS011;59251;51.326;12.370;2022-10-16T02:14:52;5.07;;;0.90;;
71435;SDS011;59251;51.326;12.370;2022-10-16T02:17:18;5.03;;;0.90;;
71435;SDS011;59251;51.326;12.370;2022-10-16T02:19:44;5.68;;;1.00;;
71435;SDS011;59251;51.326;12.370;2022-10-16T02:22:16;7.25;;;1.10;;
71435;SDS011;59251;51.326;12.370;2022-10-16T02:31:01;3.97;;;0.70;;
71435;SDS011;59251;51.326;12.370;2022-10-16T02:33:17;4.35;;;0.70;;
71435;SDS011;59251;51.326;12.370;2022-10-16T02:35:46;4.35;;;0.55;;
71435;SDS011;59251;51.326;12.370;2022-10-16T02:38:14;4.57;;;0.97;;
71435;SDS011;59251;51.326;12.370;2022-10-16T02:40:41;4.70;;;0.70;;
71435;SDS011;59251;51.326;12.370;2022-10-16T02:43:07;3.85;;;0.60;;
71435;SDS011;59251;51.326;12.370;2022-10-16T02:45:33;3.90;;;0.60;;
71435;SDS011;59251;51.326;12.370;2022-10-16T02:47:59;7.60;;;0.80;;
71435;SDS011;59251;51.326;12.370;2022-10-16T02:50:24;4.90;;;0.70;;
71435;SDS011;59251;51.326;12.370;2022-10-16T02:52:50;4.10;;;0.70;;
71435;SDS011;59251;51.326;12.370;2022-10-16T02:55:16;4.60;;;0.90;;
71435;SDS011;59251;51.326;12.370;2022-10-16T02:57:41;4.60;;;0.50;;
71435;SDS011;59251;51.326;12.370;2022-10-16T03:00:10;4.13;;;0.57;;
71435;SDS011;59251;51.326;12.370;2022-10-16T03:02:37;5.88;;;1.15;;
71435;SDS011;59251;51.326;12.370;2022-10-16T03:05:03;4.90;;;0.80;;
71435;SDS011;59251;51.326;12.370;2022-10-16T03:07:29;4.72;;;0.75;;
71435;SDS011;59251;51.326;12.370;2022-10-16T03:09:54;4.80;;;0.90;;
71435;SDS011;59251;51.326;12.370;2022-10-16T03:12:20;4.27;;;0.80;;
71435;SDS011;59251;51.326;12.370;2022-10-16T03:14:46;4.13;;;0.70;;
71435;SDS011;59251;51.326;12.370;2022-10-16T03:17:11;4.10;;;0.80;;
71435;SDS011;59251;51.326;12.370;2022-10-16T03:19:38;4.47;;;0.65;;
71435;SDS011;59251;51.326;12.370;2022-10-16T03:22:03;4.30;;;0.93;;
71435;SDS011;59251;51.326;12.370;2022-10-16T03:24:29;4.30;;;0.90;;
71435;SDS011;59251;51.326;12.370;2022-10-16T03:26:54;4.90;;;1.00;;
71435;SDS011;59251;51.326;12.370;2022-10-16T03:29:20;4.83;;;1.00;;
71435;SDS011;59251;51.326;12.370;2022-10-16T03:31:45;4.63;;;0.70;;
71435;SDS011;59251;51.326;12.370;2022-10-16T03:34:10;4.37;;;0.93;;
71435;SDS011;59251;51.326;12.370;2022-10-16T03:36:36;4.13;;;0.80;;
71435;SDS011;59251;51.326;12.370;2022-10-16T03:39:01;4.20;;;0.93;;
71435;SDS011;59251;51.326;12.370;2022-10-16T03:41:27;4.68;;;0.73;;
71435;SDS011;59251;51.326;12.370;2022-10-16T03:43:52;4.03;;;0.70;;
71435;SDS011;59251;51.326;12.370;2022-10-16T03:46:18;4.00;;;0.80;;
71435;SDS011;59251;51.326;12.370;2022-10-16T03:48:43;3.90;;;0.60;;
71435;SDS011;59251;51.326;12.370;2022-10-16T03:51:08;5.23;;;0.70;;
71435;SDS011;59251;51.326;12.370;2022-10-16T03:53:34;4.33;;;0.90;;
71435;SDS011;59251;51.326;12.370;2022-10-16T03:55:59;7.20;;;1.05;;
71435;SDS011;59251;51.326;12.370;2022-10-16T03:58:25;5.80;;;0.80;;
71435;SDS011;59251;51.326;12.370;2022-10-16T04:00:50;3.90;;;0.70;;
71435;SDS011;59251;51.326;12.370;2022-10-16T04:03:16;6.40;;;1.13;;
71435;SDS011;59251;51.326;12.370;2022-10-16T04:05:42;4.15;;;0.73;;
71435;SDS011;59251;51.326;12.370;2022-10-16T04:08:07;4.83;;;1.00;;
71435;SDS011;59251;51.326;12.370;2022-10-16T04:10:33;5.97;;;0.90;;
71435;SDS011;59251;51.326;12.370;2022-10-16T04:12:58;4.87;;;1.00;;
71435;SDS011;59251;51.326;12.370;2022-10-16T04:15:24;4.43;;;1.10;;
71435;SDS011;59251;51.326;12.370;2022-10-16T04:17:50;4.70;;;0.90;;
71435;SDS011;59251;51.326;12.370;2022-10-16T04:20:16;5.80;;;0.77;;
71435;SDS011;59251;51.326;12.370;2022-10-16T04:22:41;6.40;;;1.00;;
71435;SDS011;59251;51.326;12.370;2022-10-16T04:25:07;4.03;;;0.80;;
71435;SDS011;59251;51.326;12.370;2022-10-16T04:27:33;5.20;;;1.00;;
71435;SDS011;59251;51.326;12.370;2022-10-16T04:29:58;4.10;;;0.87;;
71435;SDS011;59251;51.326;12.370;2022-10-16T04:32:24;4.32;;;0.98;;
71435;SDS011;59251;51.326;12.370;2022-10-16T04:34:50;3.97;;;0.80;;
71435;SDS011;59251;51.326;12.370;2022-10-16T04:37:16;7.70;;;1.50;;
71435;SDS011;59251;51.326;12.370;2022-10-16T04:39:41;5.83;;;1.00;;
71435;SDS011;59251;51.326;12.370;2022-10-16T04:42:07;4.80;;;0.90;;
71435;SDS011;59251;51.326;12.370;2022-10-16T04:44:32;4.28;;;0.77;;
71435;SDS011;59251;51.326;12.370;2022-10-16T04:46:57;7.90;;;1.20;;
71435;SDS011;59251;51.326;12.370;2022-10-16T04:49:23;5.27;;;1.00;;
71435;SDS011;59251;51.326;12.370;2022-10-16T04:51:48;4.00;;;0.80;;
71435;SDS011;59251;51.326;12.370;2022-10-16T04:54:14;4.40;;;0.80;;
71435;SDS011;59251;51.326;12.370;2022-10-16T04:56:39;4.27;;;0.83;;
71435;SDS011;59251;51.326;12.370;2022-10-16T04:59:15;5.13;;;1.00;;
71435;SDS011;59251;51.326;12.370;2022-10-16T05:01:42;5.38;;;1.10;;
71435;SDS011;59251;51.326;12.370;2022-10-16T05:04:08;5.53;;;1.00;;
71435;SDS011;59251;51.326;12.370;2022-10-16T05:06:33;4.40;;;0.90;;
71435;SDS011;59251;51.326;12.370;2022-10-16T05:08:59;7.60;;;0.95;;
71435;SDS011;59251;51.326;12.370;2022-10-16T05:11:24;5.13;;;1.10;;
71435;SDS011;59251;51.326;12.370;2022-10-16T05:13:50;5.63;;;1.20;;
71435;SDS011;59251;51.326;12.370;2022-10-16T05:16:15;5.67;;;1.10;;
71435;SDS011;59251;51.326;12.370;2022-10-16T05:18:41;6.00;;;1.10;;
71435;SDS011;59251;51.326;12.370;2022-10-16T05:21:06;7.18;;;1.15;;
71435;SDS011;59251;51.326;12.370;2022-10-16T05:23:31;7.13;;;1.47;;
71435;SDS011;59251;51.326;12.370;2022-10-16T05:25:58;5.33;;;1.03;;
71435;SDS011;59251;51.326;12.370;2022-10-16T05:28:27;4.60;;;1.05;;
71435;SDS011;59251;51.326;12.370;2022-10-16T05:30:54;5.32;;;0.90;;
71435;SDS011;59251;51.326;12.370;2022-10-16T05:33:20;5.93;;;1.20;;
71435;SDS011;59251;51.326;12.370;2022-10-16T05:35:46;5.57;;;1.38;;
71435;SDS011;59251;51.326;12.370;2022-10-16T05:38:12;4.20;;;1.00;;
71435;SDS011;59251;51.326;12.370;2022-10-16T05:40:37;5.88;;;1.10;;
71435;SDS011;59251;51.326;12.370;2022-10-16T05:43:02;5.43;;;1.10;;
71435;SDS011;59251;51.326;12.370;2022-10-16T05:45:28;4.73;;;1.10;;
71435;SDS011;59251;51.326;12.370;2022-10-16T05:47:53;5.07;;;0.97;;
71435;SDS011;59251;51.326;12.370;2022-10-16T05:50:19;5.45;;;1.20;;
71435;SDS011;59251;51.326;12.370;2022-10-16T05:52:44;5.33;;;1.07;;
71435;SDS011;59251;51.326;12.370;2022-10-16T05:55:09;6.57;;;1.60;;
71435;SDS011;59251;51.326;12.370;2022-10-16T05:57:35;4.60;;;1.00;;
71435;SDS011;59251;51.326;12.370;2022-10-16T06:00:00;4.60;;;1.20;;
71435;SDS011;59251;51.326;12.370;2022-10-16T06:02:25;5.50;;;1.27;;
71435;SDS011;59251;51.326;12.370;2022-10-16T06:04:51;4.73;;;1.20;;
71435;SDS011;59251;51.326;12.370;2022-10-16T06:07:18;5.13;;;1.20;;
71435;SDS011;59251;51.326;12.370;2022-10-16T06:09:44;5.65;;;1.13;;
71435;SDS011;59251;51.326;12.370;2022-10-16T06:12:13;4.50;;;1.07;;
71435;SDS011;59251;51.326;12.370;2022-10-16T06:14:38;5.07;;;1.00;;
71435;SDS011;59251;51.326;12.370;2022-10-16T06:17:04;4.80;;;1.10;;
71435;SDS011;59251;51.326;12.370;2022-10-16T06:19:29;4.47;;;1.00;;
71435;SDS011;59251;51.326;12.370;2022-10-16T06:21:54;5.87;;;1.27;;
71435;SDS011;59251;51.326;12.370;2022-10-16T06:24:22;4.70;;;1.10;;
71435;SDS011;59251;51.326;12.370;2022-10-16T06:26:48;4.27;;;0.90;;
71435;SDS011;59251;51.326;12.370;2022-10-16T06:29:13;5.97;;;0.90;;
71435;SDS011;59251;51.326;12.370;2022-10-16T06:31:39;4.63;;;0.97;;
71435;SDS011;59251;51.326;12.370;2022-10-16T06:34:04;5.33;;;1.00;;
71435;SDS011;59251;51.326;12.370;2022-10-16T06:36:34;4.95;;;0.90;;
71435;SDS011;59251;51.326;12.370;2022-10-16T06:38:59;7.87;;;1.27;;
71435;SDS011;59251;51.326;12.370;2022-10-16T06:41:25;4.85;;;1.15;;
71435;SDS011;59251;51.326;12.370;2022-10-16T06:43:50;4.60;;;1.10;;
71435;SDS011;59251;51.326;12.370;2022-10-16T06:46:18;5.30;;;1.05;;
71435;SDS011;59251;51.326;12.370;2022-10-16T06:48:45;4.50;;;1.07;;
71435;SDS011;59251;51.326;12.370;2022-10-16T06:51:12;4.15;;;1.02;;
71435;SDS011;59251;51.326;12.370;2022-10-16T06:53:40;4.95;;;1.08;;
71435;SDS011;59251;51.326;12.370;2022-10-16T06:56:09;5.43;;;1.30;;
71435;SDS011;59251;51.326;12.370;2022-10-16T06:58:39;5.10;;;1.07;;
71435;SDS011;59251;51.326;12.370;2022-10-16T07:01:06;5.20;;;1.10;;
71435;SDS011;59251;51.326;12.370;2022-10-16T07:03:32;6.55;;;1.05;;
71435;SDS011;59251;51.326;12.370;2022-10-16T07:06:01;5.40;;;1.20;;
71435;SDS011;59251;51.326;12.370;2022-10-16T07:08:30;5.03;;;1.42;;
71435;SDS011;59251;51.326;12.370;2022-10-16T07:11:00;10.70;;;4.27;;
71435;SDS011;59251;51.326;12.370;2022-10-16T07:13:36;4.88;;;1.05;;
71435;SDS011;59251;51.326;12.370;2022-10-16T07:16:15;7.18;;;1.25;;
71435;SDS011;59251;51.326;12.370;2022-10-16T07:18:43;6.10;;;1.52;;
71435;SDS011;59251;51.326;12.370;2022-10-16T07:21:12;6.38;;;1.70;;
71435;SDS011;59251;51.326;12.370;2022-10-16T07:23:39;6.23;;;1.20;;
71435;SDS011;59251;51.326;12.370;2022-10-16T07:26:05;4.82;;;0.90;;
71435;SDS011;59251;51.326;12.370;2022-10-16T07:28:31;5.03;;;1.10;;
71435;SDS011;59251;51.326;12.370;2022-10-16T07:31:04;4.70;;;1.10;;
71435;SDS011;59251;51.326;12.370;2022-10-16T07:33:32;6.18;;;0.90;;
71435;SDS011;59251;51.326;12.370;2022-10-16T07:35:59;6.27;;;1.43;;
71435;SDS011;59251;51.326;12.370;2022-10-16T07:38:24;4.57;;;0.98;;
71435;SDS011;59251;51.326;12.370;2022-10-16T07:41:00;4.53;;;0.80;;
71435;SDS011;59251;51.326;12.370;2022-10-16T07:43:30;4.90;;;1.00;;
71435;SDS011;59251;51.326;12.370;2022-10-16T07:45:56;5.03;;;0.70;;
71435;SDS011;59251;51.326;12.370;2022-10-16T07:48:22;4.03;;;0.70;;
71435;SDS011;59251;51.326;12.370;2022-10-16T07:50:48;4.87;;;0.70;;
71435;SDS011;59251;51.326;12.370;2022-10-16T07:53:13;4.55;;;0.90;;
71435;SDS011;59251;51.326;12.370;2022-10-16T07:55:39;6.83;;;1.50;;
71435;SDS011;59251;51.326;12.370;2022-10-16T07:58:05;4.55;;;0.90;;
71435;SDS011;59251;51.326;12.370;2022-10-16T08:00:31;6.93;;;1.10;;
71435;SDS011;59251;51.326;12.370;2022-10-16T08:02:57;5.50;;;1.15;;
71435;SDS011;59251;51.326;12.370;2022-10-16T08:05:25;5.78;;;1.00;;
71435;SDS011;59251;51.326;12.370;2022-10-16T08:07:52;4.63;;;0.70;;
71435;SDS011;59251;51.326;12.370;2022-10-16T08:10:18;3.30;;;0.50;;
71435;SDS011;59251;51.326;12.370;2022-10-16T08:12:45;3.85;;;0.50;;
71435;SDS011;59251;51.326;12.370;2022-10-16T08:15:11;5.35;;;0.57;;
71435;SDS011;59251;51.326;12.370;2022-10-16T08:17:36;3.87;;;0.60;;
71435;SDS011;59251;51.326;12.370;2022-10-16T08:20:02;3.60;;;0.60;;
71435;SDS011;59251;51.326;12.370;2022-10-16T08:22:28;6.30;;;2.03;;
71435;SDS011;59251;51.326;12.370;2022-10-16T08:24:53;4.13;;;0.77;;
71435;SDS011;59251;51.326;12.370;2022-10-16T08:27:19;3.70;;;0.60;;
71435;SDS011;59251;51.326;12.370;2022-10-16T08:29:44;4.47;;;0.70;;
71435;SDS011;59251;51.326;12.370;2022-10-16T08:32:10;4.33;;;0.70;;
71435;SDS011;59251;51.326;12.370;2022-10-16T08:34:35;3.80;;;0.60;;
71435;SDS011;59251;51.326;12.370;2022-10-16T08:37:00;4.60;;;0.70;;
71435;SDS011;59251;51.326;12.370;2022-10-16T08:39:26;5.28;;;0.70;;
71435;SDS011;59251;51.326;12.370;2022-10-16T08:50:27;5.70;;;0.60;;
71435;SDS011;59251;51.326;12.370;2022-10-16T08:52:54;4.00;;;0.70;;
71435;SDS011;59251;51.326;12.370;2022-10-16T08:55:28;3.22;;;0.50;;
71435;SDS011;59251;51.326;12.370;2022-10-16T08:58:13;3.80;;;0.70;;
71435;SDS011;59251;51.326;12.370;2022-10-16T09:00:41;3.25;;;0.50;;
71435;SDS011;59251;51.326;12.370;2022-10-16T09:03:54;4.00;;;0.50;;
71435;SDS011;59251;51.326;12.370;2022-10-16T09:06:07;3.10;;;0.50;;
71435;SDS011;59251;51.326;12.370;2022-10-16T09:11:51;3.65;;;0.60;;
71435;SDS011;59251;51.326;12.370;2022-10-16T09:17:03;4.13;;;0.67;;
71435;SDS011;59251;51.326;12.370;2022-10-16T09:19:41;3.45;;;0.50;;
71435;SDS011;59251;51.326;12.370;2022-10-16T09:22:16;5.40;;;0.70;;
71435;SDS011;59251;51.326;12.370;2022-10-16T09:24:43;4.82;;;0.60;;
71435;SDS011;59251;51.326;12.370;2022-10-16T09:27:12;3.70;;;0.77;;
71435;SDS011;59251;51.326;12.370;2022-10-16T09:29:39;3.07;;;0.50;;
71435;SDS011;59251;51.326;12.370;2022-10-16T09:32:12;3.65;;;0.60;;
71435;SDS011;59251;51.326;12.370;2022-10-16T09:34:43;3.47;;;0.60;;
71435;SDS011;59251;51.326;12.370;2022-10-16T09:37:13;5.05;;;0.93;;
71435;SDS011;59251;51.326;12.370;2022-10-16T09:40:00;4.60;;;0.70;;
71435;SDS011;59251;51.326;12.370;2022-10-16T09:42:27;3.80;;;0.60;;
71435;SDS011;59251;51.326;12.370;2022-10-16T09:44:57;3.30;;;0.60;;
71435;SDS011;59251;51.326;12.370;2022-10-16T09:47:23;4.43;;;0.60;;
71435;SDS011;59251;51.326;12.370;2022-10-16T09:49:52;5.50;;;1.30;;
71435;SDS011;59251;51.326;12.370;2022-10-16T09:52:44;3.95;;;0.70;;
71435;SDS011;59251;51.326;12.370;2022-10-16T09:55:16;4.40;;;0.80;;
71435;SDS011;59251;51.326;12.370;2022-10-16T09:57:49;3.95;;;0.60;;
71435;SDS011;59251;51.326;12.370;2022-10-16T10:00:19;4.10;;;0.70;;
71435;SDS011;59251;51.326;12.370;2022-10-16T10:02:45;4.38;;;0.63;;
71435;SDS011;59251;51.326;12.370;2022-10-16T10:05:27;4.60;;;0.80;;
71435;SDS011;59251;51.326;12.370;2022-10-16T10:07:55;3.78;;;0.80;;
71435;SDS011;59251;51.326;12.370;2022-10-16T10:10:24;4.43;;;0.82;;
71435;SDS011;59251;51.326;12.370;2022-10-16T10:12:54;4.53;;;0.80;;
71435;SDS011;59251;51.326;12.370;2022-10-16T10:15:20;5.67;;;0.80;;
71435;SDS011;59251;51.326;12.370;2022-10-16T10:17:50;4.53;;;0.65;;
71435;SDS011;59251;51.326;12.370;2022-10-16T10:20:35;4.18;;;0.70;;
71435;SDS011;59251;51.326;12.370;2022-10-16T10:23:20;3.70;;;0.75;;
71435;SDS011;59251;51.326;12.370;2022-10-16T10:25:51;4.65;;;0.80;;
71435;SDS011;59251;51.326;12.370;2022-10-16T10:31:26;4.55;;;0.77;;
71435;SDS011;59251;51.326;12.370;2022-10-16T10:39:52;4.10;;;0.90;;
71435;SDS011;59251;51.326;12.370;2022-10-16T10:42:44;4.03;;;0.87;;
71435;SDS011;59251;51.326;12.370;2022-10-16T10:50:26;4.27;;;0.90;;
71435;SDS011;59251;51.326;12.370;2022-10-16T10:58:46;4.00;;;0.80;;
71435;SDS011;59251;51.326;12.370;2022-10-16T11:01:16;4.93;;;1.13;;
71435;SDS011;59251;51.326;12.370;2022-10-16T11:06:55;4.30;;;0.90;;
71435;SDS011;59251;51.326;12.370;2022-10-16T11:11:52;3.97;;;0.90;;
71435;SDS011;59251;51.326;12.370;2022-10-16T11:14:28;4.40;;;0.80;;
71435;SDS011;59251;51.326;12.370;2022-10-16T11:17:04;4.40;;;1.00;;
71435;SDS011;59251;51.326;12.370;2022-10-16T11:19:44;4.38;;;1.00;;
71435;SDS011;59251;51.326;12.370;2022-10-16T11:22:16;5.00;;;0.85;;
71435;SDS011;59251;51.326;12.370;2022-10-16T11:24:47;4.30;;;1.00;;
71435;SDS011;59251;51.326;12.370;2022-10-16T11:27:20;6.75;;;1.02;;
71435;SDS011;59251;51.326;12.370;2022-10-16T11:29:55;4.88;;;1.25;;
71435;SDS011;59251;51.326;12.370;2022-10-16T11:32:27;6.07;;;1.25;;
71435;SDS011;59251;51.326;12.370;2022-10-16T11:34:57;4.45;;;1.00;;
71435;SDS011;59251;51.326;12.370;2022-10-16T11:37:28;5.00;;;1.10;;
71435;SDS011;59251;51.326;12.370;2022-10-16T11:40:03;4.38;;;1.15;;
71435;SDS011;59251;51.326;12.370;2022-10-16T11:42:48;6.03;;;1.10;;
71435;SDS011;59251;51.326;12.370;2022-10-16T11:45:26;4.70;;;1.08;;
71435;SDS011;59251;51.326;12.370;2022-10-16T11:51:00;5.47;;;0.93;;
71435;SDS011;59251;51.326;12.370;2022-10-16T11:56:21;5.43;;;1.00;;
71435;SDS011;59251;51.326;12.370;2022-10-16T12:04:20;4.70;;;1.10;;
71435;SDS011;59251;51.326;12.370;2022-10-16T12:06:58;4.78;;;1.27;;
71435;SDS011;59251;51.326;12.370;2022-10-16T12:09:30;4.28;;;1.02;;
71435;SDS011;59251;51.326;12.370;2022-10-16T12:11:59;5.30;;;1.45;;
71435;SDS011;59251;51.326;12.370;2022-10-16T12:17:22;5.22;;;0.98;;
71435;SDS011;59251;51.326;12.370;2022-10-16T12:19:58;5.10;;;1.00;;
71435;SDS011;59251;51.326;12.370;2022-10-16T12:22:26;7.97;;;1.10;;
71435;SDS011;59251;51.326;12.370;2022-10-16T12:24:56;4.10;;;0.88;;
71435;SDS011;59251;51.326;12.370;2022-10-16T12:30:04;4.05;;;0.75;;
71435;SDS011;59251;51.326;12.370;2022-10-16T12:32:35;3.95;;;0.80;;
71435;SDS011;59251;51.326;12.370;2022-10-16T12:35:03;5.00;;;0.90;;
71435;SDS011;59251;51.326;12.370;2022-10-16T12:37:34;4.00;;;0.93;;
71435;SDS011;59251;51.326;12.370;2022-10-16T12:42:54;4.43;;;0.80;;
71435;SDS011;59251;51.326;12.370;2022-10-16T12:45:24;5.40;;;0.90;;
71435;SDS011;59251;51.326;12.370;2022-10-16T12:47:51;4.72;;;1.10;;
71435;SDS011;59251;51.326;12.370;2022-10-16T12:50:38;3.92;;;0.77;;
71435;SDS011;59251;51.326;12.370;2022-10-16T12:53:21;4.25;;;0.85;;
71435;SDS011;59251;51.326;12.370;2022-10-16T12:56:00;3.97;;;0.83;;
71435;SDS011;59251;51.326;12.370;2022-10-16T12:58:49;4.30;;;0.82;;
71435;SDS011;59251;51.326;12.370;2022-10-16T13:01:28;5.10;;;0.77;;
71435;SDS011;59251;51.326;12.370;2022-10-16T13:09:47;4.20;;;0.80;;
71435;SDS011;59251;51.326;12.370;2022-10-16T13:15:28;3.97;;;0.80;;
71435;SDS011;59251;51.326;12.370;2022-10-16T13:18:16;4.15;;;0.80;;
71435;SDS011;59251;51.326;12.370;2022-10-16T13:29:23;4.10;;;0.70;;
71435;SDS011;59251;51.326;12.370;2022-10-16T13:31:49;5.73;;;0.80;;
71435;SDS011;59251;51.326;12.370;2022-10-16T13:34:16;4.72;;;0.90;;
71435;SDS011;59251;51.326;12.370;2022-10-16T13:36:48;4.47;;;1.10;;
71435;SDS011;59251;51.326;12.370;2022-10-16T13:39:26;3.90;;;0.80;;
71435;SDS011;59251;51.326;12.370;2022-10-16T13:42:11;4.00;;;0.90;;
71435;SDS011;59251;51.326;12.370;2022-10-16T13:44:43;4.40;;;0.98;;
71435;SDS011;59251;51.326;12.370;2022-10-16T13:47:17;3.80;;;0.80;;
71435;SDS011;59251;51.326;12.370;2022-10-16T13:49:58;3.65;;;0.70;;
71435;SDS011;59251;51.326;12.370;2022-10-16T13:52:28;4.07;;;1.00;;
71435;SDS011;59251;51.326;12.370;2022-10-16T13:54:54;3.97;;;0.80;;
71435;SDS011;59251;51.326;12.370;2022-10-16T13:57:21;4.63;;;0.73;;
71435;SDS011;59251;51.326;12.370;2022-10-16T13:59:48;4.20;;;0.80;;
71435;SDS011;59251;51.326;12.370;2022-10-16T14:02:15;5.20;;;0.70;;
71435;SDS011;59251;51.326;12.370;2022-10-16T14:04:42;5.00;;;0.80;;
71435;SDS011;59251;51.326;12.370;2022-10-16T14:07:14;4.37;;;1.03;;
71435;SDS011;59251;51.326;12.370;2022-10-16T14:09:48;5.80;;;0.90;;
71435;SDS011;59251;51.326;12.370;2022-10-16T14:12:15;5.13;;;1.10;;
71435;SDS011;59251;51.326;12.370;2022-10-16T14:14:42;5.68;;;0.85;;
71435;SDS011;59251;51.326;12.370;2022-10-16T14:17:23;5.90;;;1.27;;
71435;SDS011;59251;51.326;12.370;2022-10-16T14:19:52;7.03;;;1.10;;
71435;SDS011;59251;51.326;12.370;2022-10-16T14:22:26;5.22;;;0.88;;
71435;SDS011;59251;51.326;12.370;2022-10-16T14:25:00;4.10;;;0.90;;
71435;SDS011;59251;51.326;12.370;2022-10-16T14:30:19;4.63;;;1.10;;
71435;SDS011;59251;51.326;12.370;2022-10-16T14:32:54;7.20;;;1.00;;
71435;SDS011;59251;51.326;12.370;2022-10-16T14:35:40;6.13;;;1.20;;
71435;SDS011;59251;51.326;12.370;2022-10-16T14:38:05;4.50;;;1.02;;
71435;SDS011;59251;51.326;12.370;2022-10-16T14:40:45;6.70;;;1.00;;
71435;SDS011;59251;51.326;12.370;2022-10-16T14:43:22;5.50;;;0.90;;
71435;SDS011;59251;51.326;12.370;2022-10-16T14:45:56;6.50;;;1.15;;
71435;SDS011;59251;51.326;12.370;2022-10-16T14:48:22;4.30;;;0.80;;
71435;SDS011;59251;51.326;12.370;2022-10-16T14:50:48;4.40;;;0.90;;
71435;SDS011;59251;51.326;12.370;2022-10-16T14:53:14;4.53;;;1.00;;
71435;SDS011;59251;51.326;12.370;2022-10-16T14:55:40;4.73;;;1.10;;
71435;SDS011;59251;51.326;12.370;2022-10-16T14:58:11;5.40;;;0.93;;
71435;SDS011;59251;51.326;12.370;2022-10-16T15:00:44;4.30;;;1.10;;
71435;SDS011;59251;51.326;12.370;2022-10-16T15:03:09;4.88;;;1.10;;
71435;SDS011;59251;51.326;12.370;2022-10-16T15:05:35;6.13;;;1.30;;
71435;SDS011;59251;51.326;12.370;2022-10-16T15:08:01;6.67;;;2.00;;
71435;SDS011;59251;51.326;12.370;2022-10-16T15:10:26;6.70;;;1.80;;
71435;SDS011;59251;51.326;12.370;2022-10-16T15:12:53;5.47;;;1.38;;
71435;SDS011;59251;51.326;12.370;2022-10-16T15:17:47;6.32;;;1.30;;
71435;SDS011;59251;51.326;12.370;2022-10-16T15:20:14;4.75;;;1.20;;
71435;SDS011;59251;51.326;12.370;2022-10-16T15:22:39;5.20;;;1.20;;
71435;SDS011;59251;51.326;12.370;2022-10-16T15:25:39;4.57;;;1.20;;
71435;SDS011;59251;51.326;12.370;2022-10-16T15:27:57;6.03;;;1.23;;
71435;SDS011;59251;51.326;12.370;2022-10-16T15:30:23;5.10;;;1.33;;
71435;SDS011;59251;51.326;12.370;2022-10-16T15:32:48;5.33;;;1.27;;
71435;SDS011;59251;51.326;12.370;2022-10-16T15:35:14;6.03;;;2.00;;
71435;SDS011;59251;51.326;12.370;2022-10-16T15:37:39;5.10;;;1.40;;
71435;SDS011;59251;51.326;12.370;2022-10-16T15:40:05;11.07;;;1.70;;
71435;SDS011;59251;51.326;12.370;2022-10-16T15:42:30;5.40;;;1.80;;
71435;SDS011;59251;51.326;12.370;2022-10-16T15:44:56;5.53;;;1.57;;
71435;SDS011;59251;51.326;12.370;2022-10-16T15:47:21;7.50;;;2.20;;
71435;SDS011;59251;51.326;12.370;2022-10-16T15:49:46;7.63;;;2.57;;
71435;SDS011;59251;51.326;12.370;2022-10-16T15:52:12;10.47;;;3.27;;
71435;SDS011;59251;51.326;12.370;2022-10-16T15:54:37;7.90;;;2.57;;
71435;SDS011;59251;51.326;12.370;2022-10-16T15:57:02;10.30;;;2.13;;
71435;SDS011;59251;51.326;12.370;2022-10-16T15:59:28;5.27;;;1.40;;
71435;SDS011;59251;51.326;12.370;2022-10-16T16:01:53;6.68;;;2.45;;
71435;SDS011;59251;51.326;12.370;2022-10-16T16:04:19;7.23;;;2.13;;
71435;SDS011;59251;51.326;12.370;2022-10-16T16:06:44;5.70;;;1.63;;
71435;SDS011;59251;51.326;12.370;2022-10-16T16:09:11;5.68;;;1.70;;
71435;SDS011;59251;51.326;12.370;2022-10-16T16:11:37;5.05;;;1.33;;
71435;SDS011;59251;51.326;12.370;2022-10-16T16:14:04;5.47;;;1.80;;
71435;SDS011;59251;51.326;12.370;2022-10-16T16:16:30;6.55;;;1.75;;
71435;SDS011;59251;51.326;12.370;2022-10-16T16:18:58;7.53;;;2.38;;
71435;SDS011;59251;51.326;12.370;2022-10-16T16:21:23;6.17;;;1.80;;
71435;SDS011;59251;51.326;12.370;2022-10-16T16:23:49;5.57;;;1.77;;
71435;SDS011;59251;51.326;12.370;2022-10-16T16:26:18;5.83;;;1.87;;
71435;SDS011;59251;51.326;12.370;2022-10-16T16:28:51;8.87;;;2.17;;